Time;durP1;ratioP1;P1;durP2;ratioP2;P2;SDS_P1;SDS_P2;PMS_P1;PMS_P2;Temp;Humidity;BMP_temperature;BMP_pressure;BME280_temperature;BME280_humidity;BME280_pressure;Samples;Min_cycle;Max_cycle;Signal;HPM_P1;HPM_P2
2021/10/07 00:02:50;;;;;;;1.30;0.70;;;24.00;47.50;;;;;;6299763;28;20530;-71
2021/10/07 00:05:50;;;;;;;1.38;0.70;;;24.00;47.50;;;;;;6318273;28;20032;-72
2021/10/07 00:08:51;;;;;;;0.93;0.63;;;24.00;47.50;;;;;;6302401;28;20655;-72
2021/10/07 00:11:52;;;;;;;0.70;0.63;;;24.00;47.40;;;;;;6292270;28;20111;-72
2021/10/07 00:14:52;;;;;;;0.90;0.68;;;24.00;47.50;;;;;;6305744;28;20033;-72
2021/10/07 00:17:54;;;;;;;0.75;0.60;;;24.00;47.50;;;;;;6298508;28;20084;-72
2021/10/07 00:20:54;;;;;;;0.73;0.70;;;24.00;47.50;;;;;;6317880;28;20316;-72
2021/10/07 00:24:08;;;;;;;0.47;0.45;;;24.00;47.40;;;;;;6303431;28;20040;-72
2021/10/07 00:27:08;;;;;;;0.65;0.57;;;24.00;47.40;;;;;;6303980;28;20052;-72
2021/10/07 00:30:16;;;;;;;0.52;0.50;;;24.00;47.40;;;;;;6292822;28;20545;-72
2021/10/07 00:33:23;;;;;;;0.70;0.50;;;24.00;47.50;;;;;;6311485;28;20058;-72
2021/10/07 00:36:37;;;;;;;0.50;0.50;;;24.00;47.30;;;;;;6299020;28;20020;-72
2021/10/07 00:39:37;;;;;;;0.75;0.55;;;24.00;47.40;;;;;;6317792;28;20103;-72
2021/10/07 00:42:38;;;;;;;0.70;0.70;;;24.00;47.40;;;;;;6305000;28;20498;-72
2021/10/07 00:45:39;;;;;;;1.15;0.85;;;24.00;47.30;;;;;;6292549;28;20017;-72
2021/10/07 00:48:39;;;;;;;0.73;0.50;;;24.00;47.30;;;;;;6312817;28;20360;-72
2021/10/07 00:51:40;;;;;;;0.70;0.70;;;24.00;47.40;;;;;;6317336;28;20043;-72
2021/10/07 00:54:41;;;;;;;0.60;0.60;;;24.00;47.40;;;;;;6297916;28;20032;-72
2021/10/07 00:57:42;;;;;;;1.08;0.80;;;24.00;47.40;;;;;;6307357;28;20079;-72
2021/10/07 01:00:44;;;;;;;0.50;0.50;;;24.00;47.40;;;;;;6322207;28;20483;-72
2021/10/07 01:03:44;;;;;;;0.70;0.50;;;24.00;47.40;;;;;;6315175;28;20035;-72
2021/10/07 01:06:46;;;;;;;0.85;0.60;;;24.00;47.30;;;;;;6322383;28;20020;-72
2021/10/07 01:09:46;;;;;;;0.90;0.73;;;24.00;47.30;;;;;;6320625;28;20058;-72
2021/10/07 01:12:47;;;;;;;0.77;0.60;;;24.00;47.30;;;;;;6315068;28;20527;-72
2021/10/07 01:15:48;;;;;;;0.70;0.60;;;24.00;47.20;;;;;;6297480;28;20024;-71
2021/10/07 01:18:49;;;;;;;0.73;0.60;;;24.00;47.30;;;;;;6307221;28;20051;-72
2021/10/07 01:21:49;;;;;;;0.77;0.63;;;24.00;47.30;;;;;;6296222;28;20333;-71
2021/10/07 01:24:50;;;;;;;0.75;0.60;;;24.00;47.20;;;;;;6316469;28;20031;-72
2021/10/07 01:27:55;;;;;;;1.20;0.50;;;24.00;47.30;;;;;;6312207;28;20032;-72
2021/10/07 01:30:56;;;;;;;3.30;0.70;;;24.00;47.30;;;;;;6321703;28;20040;-72
2021/10/07 01:33:56;;;;;;;0.88;0.60;;;24.00;47.30;;;;;;6296493;28;20059;-72
2021/10/07 01:36:58;;;;;;;0.65;0.60;;;24.00;47.20;;;;;;6303412;28;20111;-72
2021/10/07 01:39:59;;;;;;;1.23;0.77;;;24.00;47.20;;;;;;6320952;28;20382;-71
2021/10/07 01:42:59;;;;;;;0.90;0.70;;;24.00;47.20;;;;;;6305785;28;20021;-72
2021/10/07 01:46:00;;;;;;;0.60;0.57;;;24.00;47.20;;;;;;6295970;28;20096;-71
2021/10/07 01:49:01;;;;;;;0.93;0.70;;;23.90;47.80;;;;;;6319237;28;20028;-71
2021/10/07 01:52:02;;;;;;;1.10;0.70;;;23.80;48.40;;;;;;6315161;28;20399;-71
2021/10/07 01:55:03;;;;;;;1.33;0.60;;;23.70;48.70;;;;;;6320613;28;20119;-71
2021/10/07 01:58:04;;;;;;;1.27;0.65;;;23.60;49.00;;;;;;6311527;28;20505;-72
2021/10/07 02:01:05;;;;;;;0.50;0.50;;;23.60;49.20;;;;;;6320558;28;20062;-71
2021/10/07 02:04:06;;;;;;;1.02;0.70;;;23.60;49.40;;;;;;6299164;28;20103;-72
2021/10/07 02:07:07;;;;;;;0.75;0.60;;;23.50;49.50;;;;;;6297351;28;20098;-72
2021/10/07 02:10:12;;;;;;;1.23;0.68;;;23.50;49.70;;;;;;6320748;28;20052;-72
2021/10/07 02:13:13;;;;;;;1.77;0.80;;;23.50;49.90;;;;;;6310295;28;20028;-72
2021/10/07 02:16:13;;;;;;;0.88;0.75;;;23.50;50.00;;;;;;6295224;28;20032;-72
2021/10/07 02:19:14;;;;;;;0.70;0.60;;;23.50;50.10;;;;;;6308048;28;20028;-72
2021/10/07 02:22:14;;;;;;;1.05;0.60;;;23.50;50.30;;;;;;6319901;28;20043;-72
2021/10/07 02:25:15;;;;;;;1.05;0.80;;;23.40;50.20;;;;;;6300592;28;20111;-72
2021/10/07 02:28:16;;;;;;;0.98;0.70;;;23.40;50.40;;;;;;6319892;28;20043;-72
2021/10/07 02:31:16;;;;;;;0.85;0.70;;;23.40;50.50;;;;;;6317524;28;20051;-72
2021/10/07 02:34:17;;;;;;;0.68;0.65;;;23.40;50.70;;;;;;6298221;28;20020;-72
2021/10/07 02:37:17;;;;;;;1.08;0.73;;;23.30;50.70;;;;;;6309796;28;20127;-72
2021/10/07 02:40:18;;;;;;;1.20;0.80;;;23.30;50.80;;;;;;6295028;28;20024;-72
2021/10/07 02:43:19;;;;;;;0.98;0.75;;;23.30;51.00;;;;;;6312221;28;20560;-72
2021/10/07 02:46:19;;;;;;;2.33;0.73;;;23.30;50.90;;;;;;6319092;28;20028;-72
2021/10/07 02:49:20;;;;;;;1.00;0.80;;;23.30;51.00;;;;;;6295052;28;20052;-71
2021/10/07 02:52:20;;;;;;;0.68;0.63;;;23.30;51.20;;;;;;6302922;28;20043;-72
2021/10/07 02:55:21;;;;;;;1.30;0.82;;;23.30;51.10;;;;;;6319561;28;20245;-72
2021/10/07 02:58:21;;;;;;;0.50;0.50;;;23.30;51.20;;;;;;6303275;28;20090;-72
2021/10/07 03:01:25;;;;;;;1.13;0.70;;;23.30;51.20;;;;;;6294201;28;20055;-72
2021/10/07 03:04:26;;;;;;;1.40;0.75;;;23.20;51.30;;;;;;6342567;28;20034;-72
2021/10/07 03:07:26;;;;;;;1.35;0.88;;;23.20;51.30;;;;;;6339533;28;20020;-72
2021/10/07 03:10:27;;;;;;;0.80;0.77;;;23.20;51.40;;;;;;6318988;28;20062;-72
2021/10/07 03:13:28;;;;;;;0.90;0.70;;;23.20;51.30;;;;;;6305419;28;20025;-72
2021/10/07 03:16:28;;;;;;;1.45;0.90;;;23.20;51.40;;;;;;6300840;28;20174;-72
2021/10/07 03:19:29;;;;;;;1.13;0.75;;;23.20;51.50;;;;;;6298148;28;20548;-72
2021/10/07 03:22:29;;;;;;;1.15;0.85;;;23.20;51.50;;;;;;6296668;28;20024;-71
2021/10/07 03:25:30;;;;;;;1.25;0.80;;;23.20;51.40;;;;;;6310934;28;20431;-72
2021/10/07 03:28:31;;;;;;;0.93;0.70;;;23.20;51.60;;;;;;6314929;28;20495;-72
2021/10/07 03:31:32;;;;;;;1.13;0.70;;;23.20;51.40;;;;;;6312583;28;20083;-72
2021/10/07 03:34:32;;;;;;;1.50;0.80;;;23.20;51.60;;;;;;6294140;28;20029;-71
2021/10/07 03:37:33;;;;;;;0.70;0.60;;;23.20;51.50;;;;;;6305064;28;20035;-72
2021/10/07 03:40:34;;;;;;;0.68;0.60;;;23.20;51.60;;;;;;6318904;28;20028;-71
2021/10/07 03:43:34;;;;;;;0.93;0.68;;;23.20;51.60;;;;;;6298065;28;20435;-72
2021/10/07 03:46:35;;;;;;;1.02;0.75;;;23.20;52.40;;;;;;6295918;28;20017;-72
2021/10/07 03:49:35;;;;;;;0.90;0.75;;;23.20;51.70;;;;;;6318233;28;20034;-72
2021/10/07 03:52:36;;;;;;;1.20;0.77;;;23.20;51.70;;;;;;6311299;28;20024;-71
2021/10/07 03:55:36;;;;;;;1.08;0.85;;;23.20;51.80;;;;;;6318363;28;20099;-72
2021/10/07 03:58:37;;;;;;;0.77;0.63;;;23.20;51.70;;;;;;6299569;28;20047;-71
2021/10/07 04:01:37;;;;;;;1.05;0.82;;;23.20;51.70;;;;;;6316786;28;20020;-71
2021/10/07 04:04:38;;;;;;;1.08;0.82;;;23.20;52.40;;;;;;6293305;28;20024;-71
2021/10/07 04:07:39;;;;;;;0.80;0.73;;;23.20;51.80;;;;;;6301454;28;20031;-71
2021/10/07 04:10:39;;;;;;;1.02;0.82;;;23.20;51.70;;;;;;6317608;28;20055;-71
2021/10/07 04:13:40;;;;;;;0.80;0.75;;;23.20;51.90;;;;;;6300990;28;20068;-72
2021/10/07 04:16:41;;;;;;;0.70;0.70;;;23.10;51.70;;;;;;6293347;28;20032;-72
2021/10/07 04:19:41;;;;;;;1.15;0.77;;;23.20;51.80;;;;;;6315897;28;20038;-72
2021/10/07 04:22:42;;;;;;;0.75;0.70;;;23.20;51.90;;;;;;6310657;28;20045;-72
2021/10/07 04:25:42;;;;;;;1.00;0.90;;;23.10;51.70;;;;;;6301500;28;20107;-72
2021/10/07 04:28:43;;;;;;;1.42;0.65;;;23.10;51.70;;;;;;6319690;28;20034;-72
2021/10/07 04:31:44;;;;;;;1.38;0.73;;;23.10;52.50;;;;;;6312293;28;20387;-72
2021/10/07 04:34:46;;;;;;;1.05;0.82;;;23.20;51.80;;;;;;6301419;28;20020;-71
2021/10/07 04:37:47;;;;;;;0.82;0.70;;;23.20;51.90;;;;;;6304409;28;20062;-72
2021/10/07 04:40:48;;;;;;;1.00;0.80;;;23.10;51.80;;;;;;6293419;28;20368;-72
2021/10/07 04:43:48;;;;;;;1.60;1.10;;;23.10;51.80;;;;;;6314858;28;20024;-72
2021/10/07 04:46:49;;;;;;;1.13;0.90;;;23.10;51.80;;;;;;6313263;28;20551;-71
2021/10/07 04:49:49;;;;;;;1.33;1.05;;;23.10;51.80;;;;;;6292851;28;20024;-72
2021/10/07 04:52:50;;;;;;;1.20;1.00;;;23.20;51.90;;;;;;6304466;28;20475;-72
2021/10/07 04:55:54;;;;;;;1.10;0.73;;;23.10;51.90;;;;;;6313873;28;20109;-72
2021/10/07 04:58:56;;;;;;;1.27;0.95;;;23.10;51.90;;;;;;6296827;28;20070;-72
2021/10/07 05:01:56;;;;;;;1.00;0.82;;;23.10;51.90;;;;;;6286412;28;20021;-71
2021/10/07 05:04:56;;;;;;;1.60;1.17;;;23.10;51.90;;;;;;6292072;28;20082;-72
2021/10/07 05:07:57;;;;;;;2.38;1.40;;;23.10;52.10;;;;;;6291336;28;20038;-71
2021/10/07 05:10:58;;;;;;;4.25;2.47;;;23.10;51.80;;;;;;6291083;28;20056;-72
2021/10/07 05:13:58;;;;;;;2.88;1.73;;;23.00;50.90;;;;;;6303722;28;20053;-72
2021/10/07 05:16:59;;;;;;;4.47;2.35;;;23.00;50.70;;;;;;6292492;28;20033;-72
2021/10/07 05:20:00;;;;;;;5.60;2.50;;;23.00;50.50;;;;;;6296540;28;20038;-71
2021/10/07 05:23:01;;;;;;;5.85;2.75;;;23.10;50.70;;;;;;6307811;28;20028;-72
2021/10/07 05:26:02;;;;;;;3.42;2.20;;;23.10;50.80;;;;;;6304320;28;20047;-71
2021/10/07 05:29:02;;;;;;;4.65;2.58;;;23.10;50.90;;;;;;6313663;28;20495;-72
2021/10/07 05:32:03;;;;;;;4.15;2.25;;;23.10;51.00;;;;;;6299460;28;20502;-72
2021/10/07 05:35:05;;;;;;;4.93;2.20;;;23.10;51.10;;;;;;6298482;28;20025;-71
2021/10/07 05:38:06;;;;;;;4.32;2.50;;;23.10;51.20;;;;;;6310685;28;20478;-71
2021/10/07 05:41:07;;;;;;;5.57;2.35;;;23.10;51.40;;;;;;6315196;28;20024;-71
2021/10/07 05:44:10;;;;;;;3.72;2.17;;;23.10;51.30;;;;;;6306677;28;20356;-72
2021/10/07 05:47:10;;;;;;;3.28;2.20;;;23.10;51.30;;;;;;6319091;28;20032;-72
2021/10/07 05:50:12;;;;;;;3.75;2.30;;;23.10;51.20;;;;;;6297507;28;20032;-72
2021/10/07 05:53:12;;;;;;;3.25;2.08;;;23.10;51.30;;;;;;6313976;28;20120;-71
2021/10/07 05:56:13;;;;;;;3.22;2.10;;;23.10;51.40;;;;;;6320793;28;20471;-72
2021/10/07 05:59:13;;;;;;;8.48;2.38;;;23.10;51.50;;;;;;6307328;28;20915;-72
2021/10/07 06:02:14;;;;;;;3.03;2.17;;;23.10;51.50;;;;;;6315853;28;20051;-72
2021/10/07 06:05:15;;;;;;;4.57;2.58;;;23.10;51.60;;;;;;6316218;28;20059;-73
2021/10/07 06:08:15;;;;;;;3.60;2.33;;;23.10;51.60;;;;;;6308328;28;20068;-72
2021/10/07 06:11:16;;;;;;;4.63;2.33;;;23.10;51.70;;;;;;6321961;28;20099;-72
2021/10/07 06:14:17;;;;;;;4.95;2.05;;;23.10;51.70;;;;;;6300828;28;20104;-72
2021/10/07 06:17:18;;;;;;;3.15;2.05;;;23.10;51.70;;;;;;6301503;28;20040;-72
2021/10/07 06:20:30;;;;;;;3.70;2.40;;;23.10;51.80;;;;;;6322484;28;20414;-71
2021/10/07 06:23:30;;;;;;;12.02;2.83;;;23.10;52.00;;;;;;6307831;28;20048;-72
2021/10/07 06:26:31;;;;;;;3.63;2.13;;;23.10;52.00;;;;;;6312444;28;20026;-72
2021/10/07 06:29:32;;;;;;;9.43;2.38;;;23.10;52.10;;;;;;6321987;28;20021;-72
2021/10/07 06:32:32;;;;;;;3.53;1.95;;;23.10;52.10;;;;;;6312125;28;20467;-71
2021/10/07 06:35:33;;;;;;;4.38;2.40;;;23.00;52.10;;;;;;6308332;28;21162;-73
2021/10/07 06:38:33;;;;;;;4.40;2.15;;;23.10;52.30;;;;;;6307344;28;20039;-73
2021/10/07 06:41:34;;;;;;;3.58;2.17;;;23.10;52.50;;;;;;6299925;28;20086;-72
2021/10/07 06:44:35;;;;;;;4.07;2.10;;;23.10;52.60;;;;;;6316422;28;20028;-73
2021/10/07 06:47:37;;;;;;;5.63;2.00;;;23.10;52.80;;;;;;6309406;28;20032;-73
2021/10/07 06:50:42;;;;;;;5.90;2.20;;;23.10;52.90;;;;;;6294902;28;20129;-73
2021/10/07 06:53:42;;;;;;;;;;;23.10;52.90;;;;;;6305226;28;20571;-73
2021/10/07 06:56:43;;;;;;;5.40;2.10;;;23.10;52.80;;;;;;6297558;28;20294;-73
2021/10/07 06:59:43;;;;;;;7.65;2.88;;;23.00;52.50;;;;;;6304187;28;20488;-73
2021/10/07 07:02:44;;;;;;;7.18;3.40;;;23.00;51.80;;;;;;6306164;28;20016;-72
2021/10/07 07:05:45;;;;;;;10.40;4.35;;;23.00;51.80;;;;;;6329844;28;20020;-72
2021/10/07 07:08:45;;;;;;;9.88;4.25;;;23.00;51.00;;;;;;6296279;28;20120;-73
2021/10/07 07:11:46;;;;;;;11.27;4.45;;;23.00;51.10;;;;;;6295871;28;20059;-72
2021/10/07 07:14:46;;;;;;;8.43;4.38;;;23.00;51.50;;;;;;6304610;28;20032;-72
2021/10/07 07:17:47;;;;;;;8.15;4.28;;;23.00;50.90;;;;;;6301665;28;20434;-72
2021/10/07 07:20:49;;;;;;;10.02;4.43;;;23.00;51.60;;;;;;6307945;28;20020;-72
2021/10/07 07:23:52;;;;;;;12.20;4.15;;;23.00;51.90;;;;;;6305527;28;20502;-72
2021/10/07 07:26:52;;;;;;;10.55;3.88;;;23.00;52.10;;;;;;6314372;28;20020;-72
2021/10/07 07:29:54;;;;;;;9.00;3.95;;;23.00;52.20;;;;;;6296218;28;20047;-72
2021/10/07 07:32:54;;;;;;;12.40;4.13;;;23.00;52.20;;;;;;6309858;28;20042;-71
2021/10/07 07:35:55;;;;;;;8.85;4.00;;;23.00;52.30;;;;;;6320050;28;20036;-71
2021/10/07 07:38:56;;;;;;;15.13;4.07;;;23.10;52.40;;;;;;6318616;28;20559;-71
2021/10/07 07:41:56;;;;;;;6.97;3.63;;;23.10;52.70;;;;;;6313321;28;20333;-71
2021/10/07 07:44:57;;;;;;;8.20;3.25;;;23.10;52.40;;;;;;6294605;28;20074;-71
2021/10/07 07:47:58;;;;;;;9.30;3.35;;;23.10;52.50;;;;;;6296394;28;20119;-71
2021/10/07 07:50:59;;;;;;;7.78;4.05;;;23.00;53.10;;;;;;6319865;28;20020;-71
2021/10/07 07:53:59;;;;;;;7.88;3.55;;;23.00;52.50;;;;;;6303109;28;20040;-71
2021/10/07 07:57:01;;;;;;;9.02;3.90;;;23.10;52.60;;;;;;6299513;28;20071;-70
2021/10/07 08:00:03;;;;;;;5.43;3.40;;;23.10;52.60;;;;;;6319145;28;20037;-71
2021/10/07 08:03:04;;;;;;;7.43;3.40;;;23.00;52.60;;;;;;6307016;28;20032;-70
2021/10/07 08:06:05;;;;;;;7.90;3.70;;;23.00;52.60;;;;;;6294846;28;20051;-71
2021/10/07 08:09:08;;;;;;;6.10;3.20;;;23.00;52.70;;;;;;6311700;28;20061;-71
2021/10/07 08:12:13;;;;;;;6.28;3.50;;;23.00;52.70;;;;;;6318390;28;20028;-71
2021/10/07 08:15:14;;;;;;;4.88;3.03;;;23.00;52.80;;;;;;6294691;28;20103;-70
2021/10/07 08:18:15;;;;;;;4.75;3.03;;;23.00;52.80;;;;;;6303353;28;20487;-71
2021/10/07 08:21:16;;;;;;;5.28;3.17;;;23.00;52.80;;;;;;6319682;28;20035;-71
2021/10/07 08:24:22;;;;;;;5.50;3.15;;;23.00;52.80;;;;;;6302127;28;20028;-71
2021/10/07 08:27:23;;;;;;;4.63;3.03;;;23.00;52.90;;;;;;6317459;28;20028;-71
2021/10/07 08:30:23;;;;;;;5.78;2.88;;;23.00;52.90;;;;;;6319268;28;20016;-71
2021/10/07 08:33:24;;;;;;;4.68;2.90;;;23.00;52.90;;;;;;6299986;28;20074;-71
2021/10/07 08:36:24;;;;;;;5.03;2.75;;;23.00;52.90;;;;;;6313002;28;20063;-71
2021/10/07 08:39:25;;;;;;;5.38;3.15;;;22.90;52.90;;;;;;6319418;28;20067;-71
2021/10/07 08:42:27;;;;;;;4.47;2.47;;;23.00;53.00;;;;;;6308936;28;20127;-70
2021/10/07 08:45:29;;;;;;;5.15;2.63;;;23.00;53.00;;;;;;6294607;28;20511;-71
2021/10/07 08:48:30;;;;;;;5.55;2.78;;;23.00;53.10;;;;;;6311718;28;20357;-71
2021/10/07 08:51:30;;;;;;;5.22;2.70;;;23.00;53.10;;;;;;6318250;28;20065;-70
2021/10/07 08:54:33;;;;;;;6.95;3.20;;;22.90;53.00;;;;;;6292917;28;20070;-70
2021/10/07 08:57:34;;;;;;;4.28;2.72;;;22.90;53.00;;;;;;6302876;28;20032;-70
2021/10/07 09:00:34;;;;;;;4.82;3.30;;;23.00;53.10;;;;;;6318672;28;20075;-71
2021/10/07 09:03:41;;;;;;;5.55;3.08;;;22.90;53.10;;;;;;6334931;28;20016;-70
2021/10/07 09:06:45;;;;;;;4.85;3.00;;;22.90;53.10;;;;;;6343130;28;20119;-71
2021/10/07 09:09:46;;;;;;;6.75;2.88;;;23.00;53.20;;;;;;6319997;28;20055;-70
2021/10/07 09:13:03;;;;;;;3.80;2.60;;;22.90;53.10;;;;;;6315543;28;20032;-70
2021/10/07 09:16:04;;;;;;;5.57;2.53;;;22.90;53.10;;;;;;6301458;28;20070;-70
2021/10/07 09:19:30;;;;;;;6.53;2.72;;;22.90;53.10;;;;;;6306746;28;20491;-70
2021/10/07 09:22:35;;;;;;;4.75;2.90;;;22.90;53.10;;;;;;6301491;28;20028;-71
2021/10/07 09:25:55;;;;;;;5.33;2.43;;;22.90;53.10;;;;;;6315008;28;20029;-71
2021/10/07 09:28:58;;;;;;;3.25;2.15;;;22.90;53.20;;;;;;6323207;28;20240;-71
2021/10/07 09:31:59;;;;;;;6.32;2.78;;;22.90;53.20;;;;;;6315397;28;20027;-71
2021/10/07 09:35:03;;;;;;;3.65;2.20;;;22.90;53.20;;;;;;6298853;28;20021;-71
2021/10/07 09:38:05;;;;;;;4.45;2.90;;;22.90;53.30;;;;;;6299209;28;20485;-71
2021/10/07 09:41:15;;;;;;;7.25;2.22;;;22.90;53.30;;;;;;6297855;28;20024;-71
2021/10/07 09:44:16;;;;;;;5.57;2.10;;;22.90;53.30;;;;;;6313450;28;20082;-70
2021/10/07 09:47:27;;;;;;;4.22;2.35;;;22.90;53.30;;;;;;6314514;28;20043;-71
2021/10/07 09:50:39;;;;;;;4.63;2.33;;;22.90;53.30;;;;;;6298202;28;20340;-70
2021/10/07 09:53:44;;;;;;;2.92;2.03;;;22.90;53.30;;;;;;6310370;28;20019;-70
2021/10/07 09:56:55;;;;;;;;;;;22.90;53.40;;;;;;6321029;28;20459;-71
2021/10/07 09:59:56;;;;;;;2.97;2.20;;;22.90;54.00;;;;;;6297700;28;20396;-71
2021/10/07 10:03:00;;;;;;;3.03;2.00;;;22.90;53.40;;;;;;6308744;28;20055;-71
2021/10/07 10:06:00;;;;;;;3.83;2.53;;;22.90;53.40;;;;;;6322794;28;20023;-70
2021/10/07 10:09:01;;;;;;;3.60;2.20;;;22.90;53.50;;;;;;6322111;28;20020;-71
2021/10/07 10:12:03;;;;;;;3.20;2.03;;;22.90;53.50;;;;;;6322362;28;20100;-71
2021/10/07 10:15:05;;;;;;;3.20;2.08;;;22.90;53.60;;;;;;6298176;28;20039;-71
2021/10/07 10:18:13;;;;;;;3.92;2.20;;;22.90;53.50;;;;;;6304134;28;20113;-70
2021/10/07 10:21:14;;;;;;;2.35;1.88;;;22.90;53.60;;;;;;6317410;28;20040;-71
2021/10/07 10:24:17;;;;;;;3.00;1.80;;;22.90;53.60;;;;;;6312944;28;20360;-72
2021/10/07 10:27:18;;;;;;;3.45;1.80;;;22.90;53.60;;;;;;6311197;28;20013;-72
2021/10/07 10:30:26;;;;;;;3.00;2.10;;;22.90;53.60;;;;;;6321950;28;20483;-71
2021/10/07 10:33:29;;;;;;;2.75;1.60;;;22.90;53.60;;;;;;6302292;28;20548;-71
2021/10/07 10:36:33;;;;;;;3.10;2.10;;;22.90;53.50;;;;;;6316578;28;20525;-71
2021/10/07 10:39:39;;;;;;;1.95;1.42;;;22.90;53.60;;;;;;6322636;28;20050;-71
2021/10/07 10:42:40;;;;;;;2.85;1.85;;;22.90;53.60;;;;;;6309437;28;20493;-71
2021/10/07 10:45:48;;;;;;;2.88;1.98;;;22.90;53.50;;;;;;6296604;28;20025;-71
2021/10/07 10:48:53;;;;;;;2.42;1.80;;;22.90;53.50;;;;;;6317942;28;20024;-72
2021/10/07 10:51:54;;;;;;;2.63;1.63;;;22.90;53.50;;;;;;6316914;28;20025;-71
2021/10/07 10:55:12;;;;;;;2.38;1.60;;;22.90;53.50;;;;;;6296731;28;20036;-71
2021/10/07 10:58:12;;;;;;;4.30;1.92;;;22.90;53.60;;;;;;6294596;28;20025;-71
2021/10/07 11:01:14;;;;;;;1.80;1.45;;;22.90;53.60;;;;;;6317728;28;20031;-71
2021/10/07 11:04:44;;;;;;;2.42;1.75;;;22.90;53.60;;;;;;6298439;28;20146;-71
2021/10/07 11:07:47;;;;;;;2.40;1.70;;;22.90;53.60;;;;;;6313726;28;20103;-70
2021/10/07 11:10:50;;;;;;;3.05;1.98;;;22.90;53.60;;;;;;6346878;28;20104;-71
2021/10/07 11:13:53;;;;;;;3.28;1.98;;;22.90;53.60;;;;;;6328553;28;20028;-71
2021/10/07 11:16:54;;;;;;;2.55;1.90;;;22.90;53.70;;;;;;6305960;28;20020;-71
2021/10/07 11:19:55;;;;;;;2.03;1.30;;;22.90;53.70;;;;;;6296466;28;20480;-70
2021/10/07 11:23:15;;;;;;;2.22;1.60;;;22.90;53.70;;;;;;6301590;28;20024;-71
2021/10/07 11:26:16;;;;;;;2.33;1.77;;;22.90;53.70;;;;;;6304933;28;20155;-71
2021/10/07 11:29:17;;;;;;;1.90;1.50;;;22.90;53.70;;;;;;6309237;28;20025;-71
2021/10/07 11:32:18;;;;;;;3.88;2.00;;;22.90;53.60;;;;;;6296318;28;20556;-71
2021/10/07 11:35:20;;;;;;;2.30;1.63;;;22.90;53.60;;;;;;6295203;28;20313;-71
2021/10/07 11:38:21;;;;;;;9.13;1.77;;;22.90;52.10;;;;;;6300988;28;20029;-71
2021/10/07 11:41:24;;;;;;;5.07;1.58;;;22.90;52.00;;;;;;6296063;28;20036;-71
2021/10/07 11:44:24;;;;;;;4.38;1.80;;;22.90;52.00;;;;;;6320641;28;20034;-72
2021/10/07 11:47:29;;;;;;;7.00;1.80;;;22.90;52.00;;;;;;6309693;28;20020;-71
2021/10/07 11:50:30;;;;;;;5.70;1.70;;;22.90;52.00;;;;;;6295242;28;20027;-71
2021/10/07 11:53:33;;;;;;;3.15;1.55;;;22.90;51.90;;;;;;6301115;28;20040;-71
2021/10/07 11:56:37;;;;;;;7.25;1.52;;;22.90;51.90;;;;;;6295490;28;20052;-71
2021/10/07 11:59:42;;;;;;;4.47;1.70;;;22.90;52.00;;;;;;6319980;28;20028;-71
2021/10/07 12:03:03;;;;;;;7.38;1.70;;;22.90;52.00;;;;;;6309930;28;20134;-71
2021/10/07 12:06:09;;;;;;;2.90;1.88;;;22.90;52.10;;;;;;6294648;28;20059;-71
2021/10/07 12:09:14;;;;;;;2.92;1.42;;;22.90;52.20;;;;;;6315390;28;20040;-71
2021/10/07 12:12:14;;;;;;;4.80;1.92;;;22.90;52.30;;;;;;6316009;28;20103;-71
2021/10/07 12:15:15;;;;;;;2.60;1.20;;;22.90;52.40;;;;;;6293887;28;20043;-71
2021/10/07 12:18:17;;;;;;;4.32;1.55;;;22.90;52.30;;;;;;6303708;28;20395;-71
2021/10/07 12:21:40;;;;;;;5.00;1.60;;;22.90;52.40;;;;;;6318794;28;20024;-71
2021/10/07 12:24:41;;;;;;;2.58;1.33;;;22.90;52.40;;;;;;6297434;28;20025;-71
2021/10/07 12:27:41;;;;;;;2.78;1.05;;;22.90;52.60;;;;;;6300405;28;20108;-71
2021/10/07 12:30:56;;;;;;;2.83;1.35;;;22.90;52.50;;;;;;6316768;28;20085;-71
2021/10/07 12:34:09;;;;;;;1.98;1.17;;;22.90;52.60;;;;;;6294082;28;20131;-71
2021/10/07 12:37:12;;;;;;;2.97;1.15;;;22.90;52.50;;;;;;6309633;28;20025;-70
2021/10/07 12:40:12;;;;;;;2.55;1.42;;;22.90;52.50;;;;;;6293031;28;20031;-71
2021/10/07 12:43:14;;;;;;;3.72;1.55;;;22.90;52.70;;;;;;6309920;28;20121;-71
2021/10/07 12:46:19;;;;;;;1.92;1.30;;;23.00;52.70;;;;;;6317082;28;20024;-71
2021/10/07 12:49:32;;;;;;;;;;;23.00;52.80;;;;;;6318631;28;20422;-71
2021/10/07 12:52:38;;;;;;;1.60;1.10;;;22.90;52.70;;;;;;6308280;28;19904;-71
2021/10/07 12:55:39;;;;;;;2.67;1.40;;;22.90;52.70;;;;;;6293164;28;20025;-71
2021/10/07 12:58:51;;;;;;;1.92;1.30;;;22.90;52.70;;;;;;6311118;28;20034;-70
2021/10/07 13:01:52;;;;;;;1.38;1.02;;;22.90;52.80;;;;;;6315751;28;20158;-71
2021/10/07 13:04:52;;;;;;;3.15;1.30;;;22.90;52.80;;;;;;6292903;28;20021;-71
2021/10/07 13:07:57;;;;;;;1.42;1.02;;;22.90;52.80;;;;;;6312525;28;20373;-71
2021/10/07 13:10:59;;;;;;;1.30;1.10;;;22.90;52.80;;;;;;6281669;28;1022248;-72
2021/10/07 13:14:00;;;;;;;1.15;1.00;;;22.90;52.90;;;;;;6306558;28;20035;-71
2021/10/07 13:17:00;;;;;;;1.50;1.08;;;22.90;52.90;;;;;;6307878;28;20032;-71
2021/10/07 13:20:01;;;;;;;1.17;0.85;;;22.90;52.90;;;;;;6315520;28;20134;-71
2021/10/07 13:23:02;;;;;;;1.27;1.00;;;22.90;52.90;;;;;;6314602;28;20777;-70
2021/10/07 13:26:07;;;;;;;1.50;1.17;;;22.90;52.90;;;;;;6304950;28;20479;-71
2021/10/07 13:29:07;;;;;;;1.63;1.10;;;22.90;52.90;;;;;;6293619;28;20116;-71
2021/10/07 13:32:08;;;;;;;1.48;1.00;;;22.90;53.00;;;;;;6302844;28;20020;-71
2021/10/07 13:35:09;;;;;;;1.58;0.90;;;22.90;52.90;;;;;;6318596;28;20427;-71
2021/10/07 13:38:10;;;;;;;1.95;0.85;;;22.90;53.00;;;;;;6301848;28;20033;-71
2021/10/07 13:41:10;;;;;;;1.98;1.02;;;22.90;53.00;;;;;;6293608;28;20024;-70
2021/10/07 13:44:11;;;;;;;1.20;0.95;;;22.90;53.00;;;;;;6318534;28;20471;-71
2021/10/07 13:47:12;;;;;;;1.85;1.10;;;22.90;53.00;;;;;;6311079;28;20024;-71
2021/10/07 13:50:12;;;;;;;1.27;0.95;;;22.90;53.10;;;;;;6280910;28;20028;-71
2021/10/07 13:53:13;;;;;;;2.00;1.02;;;22.90;53.10;;;;;;6295593;28;20124;-71
2021/10/07 13:56:14;;;;;;;1.38;1.00;;;22.90;53.00;;;;;;6292519;28;20097;-71
2021/10/07 13:59:14;;;;;;;10.88;1.40;;;22.90;52.90;;;;;;6297344;28;20028;-71
2021/10/07 14:02:15;;;;;;;4.65;1.35;;;22.90;51.90;;;;;;6298264;28;20032;-71
2021/10/07 14:05:17;;;;;;;4.13;1.30;;;22.90;51.00;;;;;;6301108;28;20210;-71
2021/10/07 14:08:18;;;;;;;5.05;1.27;;;22.90;50.50;;;;;;6303889;28;20100;-71
2021/10/07 14:11:20;;;;;;;3.22;1.10;;;22.90;50.40;;;;;;6301755;28;20535;-71
2021/10/07 14:14:20;;;;;;;3.90;1.00;;;22.90;50.00;;;;;;6303843;28;20320;-71
2021/10/07 14:17:21;;;;;;;7.13;1.08;;;22.90;50.20;;;;;;6315082;28;20047;-70
2021/10/07 14:20:22;;;;;;;2.60;1.30;;;22.90;50.00;;;;;;6295871;28;20024;-71
2021/10/07 14:23:24;;;;;;;2.85;1.17;;;22.90;50.30;;;;;;6303304;28;20526;-71
2021/10/07 14:26:24;;;;;;;2.30;1.45;;;22.90;50.00;;;;;;6307155;28;20047;-70
2021/10/07 14:29:26;;;;;;;3.80;1.63;;;22.90;49.70;;;;;;6303660;28;20024;-71
2021/10/07 14:32:27;;;;;;;4.45;1.45;;;22.90;49.40;;;;;;6308446;28;20032;-71
2021/10/07 14:35:28;;;;;;;5.25;1.70;;;22.90;49.50;;;;;;6297753;28;20498;-71
2021/10/07 14:38:28;;;;;;;5.10;1.20;;;22.90;49.50;;;;;;6296749;28;20037;-70
2021/10/07 14:41:29;;;;;;;3.65;1.45;;;22.90;49.50;;;;;;6295035;28;20020;-71
2021/10/07 14:44:30;;;;;;;2.65;1.10;;;22.90;49.40;;;;;;6299393;28;20055;-71
2021/10/07 14:47:30;;;;;;;5.97;1.30;;;22.90;49.60;;;;;;6309953;28;20489;-71
2021/10/07 14:50:31;;;;;;;2.92;1.33;;;22.90;49.90;;;;;;6295295;28;20062;-71
2021/10/07 14:53:31;;;;;;;2.65;1.23;;;22.90;49.90;;;;;;6310502;28;20072;-70
2021/10/07 14:56:32;;;;;;;4.18;1.60;;;22.90;49.60;;;;;;6294948;28;20021;-70
2021/10/07 14:59:34;;;;;;;3.72;1.38;;;22.90;49.60;;;;;;6312978;28;20123;-71
2021/10/07 15:02:37;;;;;;;6.88;1.83;;;22.90;49.50;;;;;;6310225;28;20479;-71
2021/10/07 15:05:37;;;;;;;8.45;2.00;;;22.80;49.30;;;;;;6328054;28;20044;-71
2021/10/07 15:08:38;;;;;;;7.75;1.75;;;22.90;48.60;;;;;;6313975;28;20040;-71
2021/10/07 15:11:38;;;;;;;6.28;1.70;;;22.90;48.40;;;;;;6297663;28;20550;-71
2021/10/07 15:14:39;;;;;;;13.00;1.48;;;22.90;48.50;;;;;;6295998;28;20035;-71
2021/10/07 15:17:41;;;;;;;7.20;1.73;;;22.80;49.10;;;;;;6297586;28;20024;-70
2021/10/07 15:20:46;;;;;;;6.15;1.83;;;22.90;49.40;;;;;;6297172;28;20024;-71
2021/10/07 15:23:47;;;;;;;6.90;1.52;;;22.80;49.30;;;;;;6301299;28;20510;-70
2021/10/07 15:26:48;;;;;;;8.32;2.30;;;22.80;49.50;;;;;;6307319;28;20032;-71
2021/10/07 15:29:49;;;;;;;6.82;1.83;;;22.80;49.40;;;;;;6301695;28;20021;-71
2021/10/07 15:32:49;;;;;;;10.07;2.05;;;22.80;48.50;;;;;;6300133;28;20146;-71
2021/10/07 15:35:50;;;;;;;9.90;2.10;;;22.80;48.80;;;;;;6294797;28;20028;-70
2021/10/07 15:38:50;;;;;;;3.60;1.60;;;22.80;49.40;;;;;;6299091;28;20063;-71
2021/10/07 15:41:52;;;;;;;7.68;2.05;;;22.80;49.30;;;;;;6299120;28;20093;-70
2021/10/07 15:44:55;;;;;;;7.75;1.90;;;22.80;48.50;;;;;;6307604;28;20032;-71
2021/10/07 15:47:55;;;;;;;10.65;1.80;;;22.80;49.80;;;;;;6299711;28;20029;-71
2021/10/07 15:50:57;;;;;;;4.95;1.58;;;22.80;50.10;;;;;;6293388;28;20391;-71